Time;durP1;ratioP1;P1;durP2;ratioP2;P2;SDS_P1;SDS_P2;PMS_P1;PMS_P2;Temp;Humidity;BMP_temperature;BMP_pressure;BME280_temperature;BME280_humidity;BME280_pressure;Samples;Min_cycle;Max_cycle;Signal;HPM_P1;HPM_P2
2022/10/18 00:02:13;;;;;;;45.53;20.03;;;;;;;6.75;80.95;96366.81;5060415;28;20642;-80
2022/10/18 00:04:38;;;;;;;33.90;16.23;;;;;;;6.49;81.00;96326.69;5059915;28;20179;-80
2022/10/18 00:07:04;;;;;;;31.83;16.27;;;;;;;6.57;81.15;96339.84;5053156;28;20148;-80
2022/10/18 00:09:29;;;;;;;34.63;17.20;;;;;;;6.70;81.09;96365.63;5076829;28;20171;-80
2022/10/18 00:11:55;;;;;;;27.13;14.87;;;;;;;6.25;81.22;96297.69;5052823;28;20217;-80
2022/10/18 00:14:21;;;;;;;31.37;14.30;;;;;;;6.65;81.20;96360.03;5052555;28;20171;-80
2022/10/18 00:16:46;;;;;;;25.30;13.67;;;;;;;6.26;81.47;96299.31;5069345;28;20166;-81
2022/10/18 00:19:11;;;;;;;27.70;13.83;;;;;;;6.65;81.17;96368.72;5061881;28;20602;-80
2022/10/18 00:21:37;;;;;;;24.87;12.63;;;;;;;6.55;80.78;96341.78;5060983;28;20197;-80
2022/10/18 00:24:03;;;;;;;24.93;11.93;;;;;;;6.51;80.67;96337.81;5067033;28;20231;-80
2022/10/18 00:26:29;;;;;;;20.70;11.87;;;;;;;6.57;80.95;96342.47;5073330;28;20190;-80
2022/10/18 00:29:02;;;;;;;16.90;10.73;;;;;;;6.33;81.48;96347.44;5064772;28;20201;-81
2022/10/18 00:31:32;;;;;;;25.27;11.30;;;;;;;6.32;81.65;96337.94;5067744;28;20246;-81
2022/10/18 00:34:01;;;;;;;18.53;11.10;;;;;;;6.32;82.12;96336.16;5059659;28;20178;-80
2022/10/18 00:36:28;;;;;;;19.23;10.40;;;;;;;6.28;81.65;96332.22;5062618;28;20175;-80
2022/10/18 00:38:54;;;;;;;19.60;11.30;;;;;;;6.26;82.04;96328.91;5063257;28;20167;-80
2022/10/18 00:41:24;;;;;;;20.63;11.00;;;;;;;6.18;81.80;96313.13;5056516;28;20555;-80
2022/10/18 00:43:56;;;;;;;16.53;10.33;;;;;;;5.93;82.00;96277.25;5067700;28;20177;-80
2022/10/18 00:46:23;;;;;;;18.67;9.77;;;;;;;6.23;81.93;96329.19;5051920;28;20591;-80
2022/10/18 00:48:50;;;;;;;17.30;10.07;;;;;;;6.05;81.42;96307.47;5051908;28;20191;-80
2022/10/18 00:51:18;;;;;;;16.10;9.40;;;;;;;5.80;81.62;96261.88;5060960;28;20178;-80
2022/10/18 00:53:44;;;;;;;15.73;9.57;;;;;;;6.13;81.39;96304.09;5052130;28;20634;-80
2022/10/18 00:56:10;;;;;;;14.70;8.97;;;;;;;5.91;81.89;96294.88;5060836;28;20173;-80
2022/10/18 00:58:35;;;;;;;18.23;9.57;;;;;;;5.93;82.02;96296.38;5052583;28;20158;-80
2022/10/18 01:01:01;;;;;;;20.70;10.97;;;;;;;6.02;81.97;96318.19;5060905;28;20181;-80
2022/10/18 01:03:26;;;;;;;14.60;9.23;;;;;;;5.90;82.02;96301.88;5063534;28;20622;-80
2022/10/18 01:05:52;;;;;;;14.83;8.93;;;;;;;6.04;82.02;96318.88;5072224;28;21106;-80
2022/10/18 01:08:44;;;;;;;14.63;8.07;;;;;;;5.95;82.19;96317.97;5066774;28;20190;-80
2022/10/18 01:11:25;;;;;;;16.10;7.77;;;;;;;5.95;82.37;96317.13;5057936;28;20182;-80
2022/10/18 01:14:15;;;;;;;15.07;7.67;;;;;;;5.89;82.61;96302.84;5064786;28;20561;-80
2022/10/18 01:17:10;;;;;;;14.10;8.47;;;;;;;5.97;81.46;96302.94;5064547;28;20162;-80
2022/10/18 01:20:06;;;;;;;13.57;8.60;;;;;;;6.00;81.93;96304.44;5056221;28;20175;-80
2022/10/18 01:22:46;;;;;;;10.80;7.20;;;;;;;6.00;81.40;96304.44;5055388;28;20619;-81
2022/10/18 01:25:33;;;;;;;13.03;6.73;;;;;;;6.01;81.31;96308.69;5054087;28;20685;-81
2022/10/18 01:28:08;;;;;;;12.50;6.67;;;;;;;5.86;81.10;96286.63;5065247;28;20591;-81
2022/10/18 01:30:33;;;;;;;17.20;7.77;;;;;;;5.95;81.11;96304.06;5064995;28;20162;-80
2022/10/18 01:33:31;;;;;;;11.83;7.03;;;;;;;5.93;81.27;96306.00;5066306;28;20691;-80
2022/10/18 01:36:10;;;;;;;14.73;6.73;;;;;;;5.76;80.83;96278.00;5075815;28;20151;-81
2022/10/18 01:38:38;;;;;;;10.47;6.43;;;;;;;5.68;80.93;96274.34;5075303;28;20607;-80
2022/10/18 01:41:06;;;;;;;9.20;6.30;;;;;;;5.70;80.94;96282.03;5075169;28;20254;-81
2022/10/18 01:43:34;;;;;;;10.53;5.90;;;;;;;5.56;81.39;96259.81;5074024;28;20551;-81
2022/10/18 01:46:01;;;;;;;10.57;6.37;;;;;;;5.50;81.38;96255.19;5074969;28;20218;-81
2022/10/18 01:48:26;;;;;;;9.83;6.20;;;;;;;5.72;81.38;96279.25;5075087;28;20245;-80
2022/10/18 01:50:52;;;;;;;11.57;6.07;;;;;;;5.60;81.54;96260.38;5075268;28;20193;-80
2022/10/18 01:53:26;;;;;;;11.63;6.43;;;;;;;5.82;81.26;96291.31;5074988;28;20162;-80
2022/10/18 01:56:16;;;;;;;18.13;7.47;;;;;;;5.56;80.95;96259.81;5065402;28;20650;-80
2022/10/18 01:59:05;;;;;;;14.70;8.93;;;;;;;5.63;81.41;96291.41;5061092;28;20605;-80
2022/10/18 02:01:53;;;;;;;17.57;8.53;;;;;;;5.71;81.67;96290.69;5058467;28;21022;-79
2022/10/18 02:04:22;;;;;;;19.43;8.57;;;;;;;5.50;81.47;96257.78;5064687;28;20170;-79
2022/10/18 02:06:56;;;;;;;16.17;8.83;;;;;;;5.65;81.48;96287.69;5064646;28;20208;-79
2022/10/18 02:09:32;;;;;;;11.80;7.73;;;;;;;5.54;81.84;96272.19;5059205;28;20175;-79
2022/10/18 02:11:59;;;;;;;15.80;8.07;;;;;;;5.56;81.96;96272.88;5063881;28;20269;-79
2022/10/18 02:14:26;;;;;;;13.33;8.00;;;;;;;5.53;81.59;96265.34;5062943;28;20175;-79
2022/10/18 02:16:55;;;;;;;17.00;8.37;;;;;;;5.44;81.54;96247.94;5054612;28;20167;-79
2022/10/18 02:19:27;;;;;;;11.93;7.60;;;;;;;5.60;81.59;96289.91;5054247;28;20164;-79
2022/10/18 02:21:55;;;;;;;18.17;8.40;;;;;;;5.45;81.82;96273.06;5065708;28;20191;-79
2022/10/18 02:24:23;;;;;;;14.80;7.60;;;;;;;5.39;82.40;96267.59;5065290;28;20552;-79
2022/10/18 02:26:49;;;;;;;15.70;6.70;;;;;;;5.45;82.55;96278.28;5065360;28;20226;-79
2022/10/18 02:29:14;;;;;;;10.33;6.67;;;;;;;5.43;82.67;96266.34;5063179;28;20681;-79
2022/10/18 02:31:47;;;;;;;17.80;7.17;;;;;;;5.52;82.66;96278.53;5066278;28;20243;-79
2022/10/18 02:34:22;;;;;;;12.13;7.53;;;;;;;5.52;82.25;96284.59;5074258;28;20224;-79
2022/10/18 02:36:52;;;;;;;14.50;6.37;;;;;;;5.47;82.13;96280.75;5072970;28;20544;-79
2022/10/18 02:39:23;;;;;;;14.30;7.07;;;;;;;5.47;81.86;96278.13;5070204;28;20555;-79
2022/10/18 02:41:49;;;;;;;11.97;6.37;;;;;;;5.49;81.86;96277.03;5063030;28;20233;-79
2022/10/18 02:44:14;;;;;;;11.67;7.20;;;;;;;5.31;82.06;96252.66;5063201;28;20175;-79
2022/10/18 02:46:40;;;;;;;11.63;6.57;;;;;;;5.25;82.07;96268.91;5064733;28;20229;-79
2022/10/18 02:49:06;;;;;;;13.63;7.10;;;;;;;5.29;82.64;96291.94;5065133;28;20201;-79
2022/10/18 02:51:31;;;;;;;12.03;7.17;;;;;;;5.27;83.13;96280.03;5066753;28;20237;-79
2022/10/18 02:53:57;;;;;;;10.57;6.50;;;;;;;5.30;83.21;96279.72;5053780;28;20653;-79
2022/10/18 02:56:22;;;;;;;13.80;8.30;;;;;;;5.31;83.37;96276.16;5054486;28;20159;-79
2022/10/18 02:58:48;;;;;;;14.00;8.20;;;;;;;5.29;83.64;96278.06;5062618;28;20187;-80
2022/10/18 03:01:13;;;;;;;12.10;7.53;;;;;;;5.29;83.24;96286.72;5062741;28;20280;-80
2022/10/18 03:03:38;;;;;;;18.03;8.23;;;;;;;5.25;82.81;96268.91;5062542;28;20174;-80
2022/10/18 03:06:04;;;;;;;13.67;8.13;;;;;;;5.30;82.98;96280.53;5054093;28;20283;-80
2022/10/18 03:08:29;;;;;;;16.53;9.23;;;;;;;5.31;82.98;96273.53;5052458;28;20650;-80
2022/10/18 03:10:55;;;;;;;17.27;9.20;;;;;;;5.27;82.71;96278.25;5053869;28;20151;-79
2022/10/18 03:13:20;;;;;;;18.63;9.53;;;;;;;5.22;83.00;96277.00;5053937;28;20175;-80
2022/10/18 03:15:47;;;;;;;16.73;9.47;;;;;;;5.28;83.29;96279.03;5054047;28;20170;-79
2022/10/18 03:18:12;;;;;;;15.00;9.03;;;;;;;5.25;82.73;96261.88;5053747;28;20615;-79
2022/10/18 03:20:38;;;;;;;19.00;9.70;;;;;;;5.27;82.37;96266.97;5054485;28;20171;-79
2022/10/18 03:23:05;;;;;;;22.87;10.53;;;;;;;5.17;82.51;96263.56;5053753;28;20171;-81
2022/10/18 03:25:31;;;;;;;19.03;12.20;;;;;;;5.17;82.30;96267.00;5065536;28;20983;-81
2022/10/18 03:27:57;;;;;;;26.10;12.50;;;;;;;5.05;82.32;96249.03;5064109;28;20235;-82
2022/10/18 03:30:22;;;;;;;23.43;13.40;;;;;;;5.18;82.36;96270.44;5063191;28;20249;-82
2022/10/18 03:32:47;;;;;;;23.07;12.27;;;;;;;5.13;82.89;96263.03;5059626;28;20182;-80
2022/10/18 03:35:13;;;;;;;19.37;11.47;;;;;;;5.01;82.59;96243.28;5053401;28;20617;-80
2022/10/18 03:37:38;;;;;;;21.03;11.43;;;;;;;5.17;82.90;96274.84;5059769;28;20170;-80
2022/10/18 03:40:04;;;;;;;24.70;11.77;;;;;;;5.06;82.95;96253.28;5063789;28;20174;-80
2022/10/18 03:42:29;;;;;;;23.73;11.70;;;;;;;5.11;83.08;96266.72;5064826;28;20197;-80
2022/10/18 03:44:55;;;;;;;20.20;11.00;;;;;;;4.86;82.54;96245.50;5054097;28;20232;-80
2022/10/18 03:47:20;;;;;;;22.57;12.53;;;;;;;5.00;82.98;96278.19;5063954;28;20324;-80
2022/10/18 03:49:46;;;;;;;28.97;14.03;;;;;;;4.94;83.11;96284.75;5061271;28;20186;-80
2022/10/18 03:52:11;;;;;;;32.03;16.13;;;;;;;5.00;83.43;96288.63;5066096;28;20170;-80
2022/10/18 03:54:36;;;;;;;25.40;12.50;;;;;;;4.94;83.39;96284.75;5072981;28;20253;-80
2022/10/18 03:57:02;;;;;;;28.43;12.57;;;;;;;4.97;82.96;96295.88;5066039;28;20269;-80
2022/10/18 03:59:27;;;;;;;27.40;12.67;;;;;;;4.89;83.00;96286.97;5065988;28;20209;-80
2022/10/18 04:01:53;;;;;;;26.00;13.53;;;;;;;4.90;83.50;96288.63;5061697;28;20268;-80
2022/10/18 04:04:18;;;;;;;22.77;13.67;;;;;;;4.90;83.95;96286.03;5055884;28;20188;-80
2022/10/18 04:06:44;;;;;;;30.93;14.20;;;;;;;4.90;84.05;96283.41;5060975;28;20210;-81
2022/10/18 04:09:09;;;;;;;28.60;15.30;;;;;;;4.66;83.54;96253.53;5061309;28;20278;-81
2022/10/18 04:11:34;;;;;;;35.07;15.17;;;;;;;4.63;83.68;96252.03;5062932;28;20191;-80
2022/10/18 04:14:00;;;;;;;31.10;15.20;;;;;;;4.91;83.82;96292.06;5063943;28;20171;-80
2022/10/18 04:16:26;;;;;;;32.43;14.93;;;;;;;4.81;83.67;96289.47;5060665;28;20237;-80
2022/10/18 04:18:51;;;;;;;27.83;15.30;;;;;;;4.80;84.21;96271.34;5052526;28;20163;-80
2022/10/18 04:21:16;;;;;;;26.73;15.47;;;;;;;4.79;83.92;96270.53;5066628;28;20190;-80
2022/10/18 04:23:42;;;;;;;30.63;15.70;;;;;;;4.83;83.79;96290.16;5060758;28;20178;-80
2022/10/18 04:26:07;;;;;;;47.33;22.17;;;;;;;4.59;83.89;96255.84;5068844;28;20221;-81
2022/10/18 04:28:33;;;;;;;42.83;18.97;;;;;;;4.85;83.96;96301.25;5078623;28;20285;-81
2022/10/18 04:30:59;;;;;;;44.67;23.70;;;;;;;4.76;83.45;96276.00;5070082;28;20178;-81
2022/10/18 04:33:25;;;;;;;58.47;25.23;;;;;;;4.87;83.65;96293.28;5061046;28;20177;-80
2022/10/18 04:35:52;;;;;;;44.00;23.53;;;;;;;4.48;83.48;96219.53;5052105;28;20167;-80
2022/10/18 04:38:18;;;;;;;45.50;23.50;;;;;;;4.73;83.18;96263.25;5052149;28;20175;-80
2022/10/18 04:40:44;;;;;;;51.37;23.77;;;;;;;4.81;83.10;96278.22;5052395;28;20674;-81
2022/10/18 04:43:09;;;;;;;48.30;22.90;;;;;;;4.69;83.35;96258.44;5052034;28;20254;-80
2022/10/18 04:45:34;;;;;;;54.13;25.20;;;;;;;4.69;83.35;96261.06;5051837;28;20223;-81
2022/10/18 04:48:00;;;;;;;62.40;24.17;;;;;;;4.74;83.70;96275.34;5051777;28;20226;-81
2022/10/18 04:50:25;;;;;;;56.23;26.33;;;;;;;4.77;83.43;96282.88;5054556;28;20672;-80
2022/10/18 04:52:52;;;;;;;52.17;25.07;;;;;;;4.71;83.52;96262.56;5065297;28;20596;-80
2022/10/18 04:55:18;;;;;;;60.73;27.13;;;;;;;4.83;83.80;96277.13;5064261;28;20179;-81
2022/10/18 04:57:43;;;;;;;68.07;28.33;;;;;;;4.68;83.81;96241.97;5061629;28;20543;-81
2022/10/18 05:00:09;;;;;;;64.70;28.97;;;;;;;4.75;83.77;96243.09;5062961;28;20656;-80
2022/10/18 05:02:34;;;;;;;86.80;32.30;;;;;;;4.72;83.35;96237.31;5062829;28;20178;-80
2022/10/18 05:04:59;;;;;;;69.27;32.73;;;;;;;4.75;83.83;96231.84;5070914;28;20194;-80
2022/10/18 05:07:25;;;;;;;74.00;33.83;;;;;;;4.62;83.50;96202.59;5072112;28;20223;-80
2022/10/18 05:09:50;;;;;;;74.00;36.77;;;;;;;5.04;83.29;96263.88;5071850;28;20261;-80
2022/10/18 05:12:16;;;;;;;73.47;35.00;;;;;;;4.92;83.17;96229.31;5072198;28;20159;-81
2022/10/18 05:14:41;;;;;;;77.67;36.60;;;;;;;4.99;83.54;96221.72;5063893;28;20179;-80
2022/10/18 05:17:07;;;;;;;85.73;38.77;;;;;;;5.38;83.11;96261.53;5064042;28;20174;-80
2022/10/18 05:19:32;;;;;;;92.87;41.47;;;;;;;5.55;82.62;96259.97;5061533;28;20178;-81
2022/10/18 05:21:57;;;;;;;79.13;39.20;;;;;;;5.72;81.88;96261.78;5066872;28;20177;-81
2022/10/18 05:24:23;;;;;;;81.50;39.03;;;;;;;5.47;81.41;96212.84;5071777;28;20641;-81
2022/10/18 05:26:48;;;;;;;93.07;44.63;;;;;;;5.55;81.53;96216.38;5071676;28;20187;-81
2022/10/18 05:29:13;;;;;;;94.60;46.40;;;;;;;5.95;81.98;96270.91;5061220;28;20733;-80
2022/10/18 05:31:53;;;;;;;102.47;46.27;;;;;;;6.11;81.89;96272.06;5062536;28;20170;-81
2022/10/18 05:34:19;;;;;;;95.93;43.87;;;;;;;6.31;81.14;96269.13;5061457;28;20182;-83
2022/10/18 05:36:45;;;;;;;73.80;35.90;;;;;;;6.46;80.52;96279.91;5060755;28;20159;-83
2022/10/18 05:39:11;;;;;;;83.93;39.57;;;;;;;6.20;80.55;96217.09;5076792;28;20171;-84
2022/10/18 05:41:36;;;;;;;85.27;39.83;;;;;;;6.74;80.06;96278.84;5069423;28;20244;-82
2022/10/18 05:44:04;;;;;;;74.03;35.50;;;;;;;6.97;79.02;96280.97;5071828;28;20653;-82
2022/10/18 05:46:29;;;;;;;65.20;29.73;;;;;;;6.94;78.17;96245.44;5071706;28;20665;-82
2022/10/18 05:48:55;;;;;;;40.50;22.50;;;;;;;7.41;76.50;96286.97;5071575;28;20162;-82
2022/10/18 05:51:20;;;;;;;33.73;17.80;;;;;;;7.40;76.61;96253.88;5070420;28;20632;-82
2022/10/18 05:53:46;;;;;;;30.53;16.20;;;;;;;7.75;76.22;96289.59;5074083;28;20250;-80
2022/10/18 05:56:11;;;;;;;39.90;15.40;;;;;;;7.70;75.00;96244.66;5066077;28;20254;-81
2022/10/18 05:58:37;;;;;;;15.20;8.10;;;;;;;8.07;74.03;96283.63;5065897;28;20193;-82
2022/10/18 06:01:04;;;;;;;18.57;7.60;;;;;;;8.16;73.06;96285.28;5065807;28;20217;-79
2022/10/18 06:03:30;;;;;;;12.83;6.17;;;;;;;8.21;72.83;96285.66;5070939;28;20233;-80
2022/10/18 06:06:07;;;;;;;10.97;6.20;;;;;;;8.25;72.65;96287.78;5059327;28;20198;-80
2022/10/18 06:08:33;;;;;;;11.23;6.30;;;;;;;8.40;72.51;96287.97;5057092;28;20182;-81
2022/10/18 06:11:04;;;;;;;14.73;7.07;;;;;;;8.59;71.42;96287.69;5054762;28;20639;-81
2022/10/18 06:13:29;;;;;;;13.07;6.43;;;;;;;8.66;70.91;96270.28;5053303;28;20178;-81
2022/10/18 06:15:56;;;;;;;9.07;6.40;;;;;;;8.96;70.83;96287.19;5054554;28;20166;-81
2022/10/18 06:18:21;;;;;;;14.83;7.23;;;;;;;9.20;70.54;96288.97;5059889;28;20175;-81
2022/10/18 06:20:47;;;;;;;16.60;7.80;;;;;;;9.43;69.07;96289.09;5065619;28;20169;-82
2022/10/18 06:23:13;;;;;;;15.83;7.47;;;;;;;9.67;68.71;96267.19;5065515;28;20688;-82
2022/10/18 06:25:38;;;;;;;20.77;7.77;;;;;;;9.95;68.19;96260.47;5064092;28;20688;-82
2022/10/18 06:28:05;;;;;;;17.33;7.77;;;;;;;10.30;67.05;96260.97;5064540;28;20173;-83
2022/10/18 06:30:30;;;;;;;18.80;7.83;;;;;;;10.64;66.18;96268.50;5066696;28;20178;-83
2022/10/18 06:32:59;;;;;;;17.27;8.07;;;;;;;10.93;64.90;96252.75;5074350;28;20523;-84
2022/10/18 06:35:25;;;;;;;17.40;10.33;;;;;;;11.18;62.22;96241.00;5074046;28;20174;-82
2022/10/18 06:37:50;;;;;;;21.57;9.93;;;;;;;11.46;61.21;96270.19;5074159;28;20544;-83
2022/10/18 06:40:16;;;;;;;17.17;9.17;;;;;;;11.72;61.06;96256.56;5074799;28;20683;-83
2022/10/18 06:42:41;;;;;;;15.00;9.23;;;;;;;12.48;61.28;96287.75;5074531;28;20170;-83
2022/10/18 06:45:07;;;;;;;20.23;10.30;;;;;;;12.97;58.31;96265.88;5074265;28;20237;-81
2022/10/18 06:47:33;;;;;;;14.77;10.23;;;;;;;13.29;55.53;96231.97;5073982;28;20238;-85
2022/10/18 06:49:58;;;;;;;22.47;10.97;;;;;;;14.13;54.44;96293.50;5089732;28;20176;-81
2022/10/18 06:52:24;;;;;;;20.70;10.93;;;;;;;14.69;53.10;96289.66;5074363;28;20544;-82
2022/10/18 06:54:51;;;;;;;20.20;11.10;;;;;;;15.33;50.28;96285.63;5056224;28;20252;-82
2022/10/18 06:57:16;;;;;;;18.00;9.53;;;;;;;15.60;48.40;96234.16;5062206;28;20170;-81
2022/10/18 06:59:42;;;;;;;23.43;11.03;;;;;;;16.33;47.71;96268.47;5065051;28;20181;-81
2022/10/18 07:02:13;;;;;;;18.97;8.93;;;;;;;16.70;45.66;96280.97;5063409;28;20182;-83
2022/10/18 07:04:38;;;;;;;20.87;10.10;;;;;;;17.19;45.21;96274.09;5078233;28;20252;-81
2022/10/18 07:07:04;;;;;;;15.60;9.10;;;;;;;17.60;44.14;96286.84;5055661;28;20206;-85
2022/10/18 07:09:29;;;;;;;18.45;9.38;;;;;;;17.90;43.16;96287.00;5058722;28;20206;-81
2022/10/18 07:11:55;;;;;;;17.48;9.90;;;;;;;17.94;42.79;96291.66;5060758;28;20328;-82
2022/10/18 07:14:20;;;;;;;23.45;10.35;;;;;;;17.76;43.10;96293.47;5059562;28;20577;-80
2022/10/18 07:16:45;;;;;;;23.27;11.27;;;;;;;17.66;43.50;96284.16;5056592;28;20246;-80
2022/10/18 07:19:11;;;;;;;19.60;9.88;;;;;;;17.31;43.37;96283.00;5055202;28;20178;-80
2022/10/18 07:21:37;;;;;;;23.95;11.60;;;;;;;17.04;44.59;96258.44;5058970;28;20239;-80
2022/10/18 07:24:02;;;;;;;19.58;11.75;;;;;;;17.15;44.70;96278.22;5059682;28;20186;-80
2022/10/18 07:26:30;;;;;;;24.50;11.48;;;;;;;17.35;44.90;96278.88;5061647;28;20194;-80
2022/10/18 07:29:07;;;;;;;21.42;9.30;;;;;;;17.50;44.53;96281.19;5054815;28;20262;-80
2022/10/18 07:31:34;;;;;;;21.30;8.38;;;;;;;17.82;42.74;96266.78;5070346;28;20613;-81
2022/10/18 07:34:00;;;;;;;19.45;8.85;;;;;;;17.96;41.62;96272.78;5063218;28;20179;-81
2022/10/18 07:36:25;;;;;;;15.77;9.25;;;;;;;17.94;43.25;96269.53;5051903;28;20209;-81
2022/10/18 07:38:51;;;;;;;18.33;10.05;;;;;;;17.86;42.27;96272.47;5053000;28;20195;-80
2022/10/18 07:41:17;;;;;;;18.00;9.20;;;;;;;17.89;42.13;96266.72;5053100;28;20162;-81
2022/10/18 07:43:45;;;;;;;22.83;10.68;;;;;;;17.46;42.62;96256.88;5053431;28;20199;-81
2022/10/18 07:46:12;;;;;;;15.95;8.68;;;;;;;17.53;43.24;96267.44;5057446;28;20237;-81
2022/10/18 07:48:38;;;;;;;18.10;9.30;;;;;;;17.07;43.03;96242.03;5063469;28;20784;-81
2022/10/18 07:51:03;;;;;;;22.50;9.90;;;;;;;16.94;43.31;96242.97;5063752;28;20216;-81
2022/10/18 07:53:29;;;;;;;16.02;9.18;;;;;;;16.90;43.73;96224.97;5059650;28;20181;-81
2022/10/18 07:55:59;;;;;;;21.50;10.13;;;;;;;17.15;43.10;96255.06;5053139;28;20175;-81
2022/10/18 07:58:25;;;;;;;18.58;9.88;;;;;;;17.09;43.76;96239.97;5053132;28;20159;-81
2022/10/18 08:00:50;;;;;;;21.35;8.95;;;;;;;17.04;43.45;96228.38;5051291;28;20178;-81
2022/10/18 08:03:15;;;;;;;23.00;9.40;;;;;;;17.38;44.78;96257.16;5053300;28;20171;-81
2022/10/18 08:05:41;;;;;;;16.08;10.27;;;;;;;17.31;42.66;96237.75;5052711;28;20649;-82
2022/10/18 08:08:06;;;;;;;20.75;9.90;;;;;;;17.05;44.36;96222.81;5052583;28;20639;-82
2022/10/18 08:10:33;;;;;;;17.40;8.93;;;;;;;17.28;44.70;96243.53;5052641;28;20179;-82
2022/10/18 08:12:59;;;;;;;20.25;8.88;;;;;;;17.42;44.84;96238.88;5052905;28;20166;-81
2022/10/18 08:15:24;;;;;;;20.15;10.90;;;;;;;17.40;45.22;96193.81;5067371;28;20183;-82
2022/10/18 08:17:50;;;;;;;24.10;10.05;;;;;;;17.47;43.90;96191.91;5052652;28;20175;-82
2022/10/18 08:20:16;;;;;;;15.77;8.90;;;;;;;17.65;43.79;96209.78;5055339;28;20178;-82
2022/10/18 08:22:41;;;;;;;23.88;10.35;;;;;;;17.56;44.07;96181.78;5062517;28;20616;-81
2022/10/18 08:25:07;;;;;;;22.23;9.35;;;;;;;17.94;43.49;96226.88;5059023;28;21056;-81
2022/10/18 08:27:32;;;;;;;16.73;9.10;;;;;;;17.88;43.16;96228.59;5062380;28;20178;-81
2022/10/18 08:30:00;;;;;;;23.30;10.45;;;;;;;17.88;44.22;96219.78;5054005;28;20194;-82
2022/10/18 08:32:27;;;;;;;18.80;10.20;;;;;;;17.84;43.99;96179.44;5061822;28;20174;-81
2022/10/18 08:34:52;;;;;;;15.75;9.43;;;;;;;18.34;43.96;96209.34;5052094;28;20156;-81
2022/10/18 08:37:18;;;;;;;23.10;9.77;;;;;;;18.34;42.10;96190.69;5052443;28;20170;-80
2022/10/18 08:39:43;;;;;;;15.05;9.38;;;;;;;18.27;42.18;96184.63;5052305;28;20213;-81
2022/10/18 08:42:23;;;;;;;19.50;9.52;;;;;;;18.13;40.86;96191.19;5057579;28;20260;-79
2022/10/18 08:44:51;;;;;;;17.67;10.07;;;;;;;18.07;41.98;96189.44;5061749;28;20654;-79
2022/10/18 08:47:21;;;;;;;16.73;10.40;;;;;;;17.72;43.13;96186.56;5059893;28;20221;-79
2022/10/18 08:49:52;;;;;;;21.60;10.38;;;;;;;17.86;42.18;96182.72;5060881;28;20623;-79
2022/10/18 08:52:50;;;;;;;17.02;10.25;;;;;;;17.67;41.43;96165.91;5061096;28;20202;-81
2022/10/18 08:55:36;;;;;;;17.55;10.32;;;;;;;17.94;42.83;96176.25;5064594;28;20170;-80
2022/10/18 08:58:04;;;;;;;13.98;8.95;;;;;;;17.97;43.76;96173.16;5060990;28;20174;-80
2022/10/18 09:00:36;;;;;;;18.38;9.32;;;;;;;18.14;41.09;96160.84;5061833;28;20174;-80
2022/10/18 09:03:19;;;;;;;20.30;9.98;;;;;;;18.14;40.99;96168.81;5062759;28;20181;-80
2022/10/18 09:06:23;;;;;;;18.33;9.70;;;;;;;17.59;41.66;96114.75;5062085;28;20207;-80
2022/10/18 09:09:26;;;;;;;19.17;10.65;;;;;;;17.39;42.20;96172.75;5043538;28;20268;-81
2022/10/18 09:12:08;;;;;;;22.02;10.52;;;;;;;16.83;44.86;96168.34;5057428;28;20174;-80
2022/10/18 09:14:51;;;;;;;16.85;10.30;;;;;;;16.35;46.97;96163.53;5060009;28;20174;-80
2022/10/18 09:17:40;;;;;;;17.60;10.27;;;;;;;16.23;47.66;96150.16;5054908;28;20174;-82
2022/10/18 09:20:14;;;;;;;19.98;9.80;;;;;;;16.52;45.48;96154.03;5051752;28;20171;-80
2022/10/18 09:22:52;;;;;;;16.42;10.57;;;;;;;16.33;48.01;96157.66;5057200;28;20599;-79
2022/10/18 09:25:21;;;;;;;27.23;10.15;;;;;;;15.94;48.07;96145.41;5056459;28;20201;-80
2022/10/18 09:27:59;;;;;;;23.95;10.20;;;;;;;16.17;46.60;96129.72;5079448;28;20170;-80
2022/10/18 09:30:44;;;;;;;22.05;9.77;;;;;;;16.53;49.48;96152.19;5058339;28;20181;-80
2022/10/18 09:33:21;;;;;;;18.90;10.60;;;;;;;16.70;47.67;96148.00;5053670;28;20634;-81
2022/10/18 09:35:56;;;;;;;20.75;9.57;;;;;;;16.70;45.95;96141.84;5066624;28;20546;-80
2022/10/18 09:38:26;;;;;;;17.30;9.18;;;;;;;16.81;47.05;96147.28;5068069;28;20189;-79
2022/10/18 09:41:06;;;;;;;18.42;9.40;;;;;;;17.10;46.23;96121.88;5067824;28;20182;-79
2022/10/18 09:43:44;;;;;;;15.73;8.55;;;;;;;17.47;45.22;96125.34;5058132;28;20953;-79
2022/10/18 09:46:10;;;;;;;13.85;8.80;;;;;;;17.81;45.41;96136.47;5063627;28;20677;-78
2022/10/18 09:48:45;;;;;;;16.67;9.57;;;;;;;17.82;45.23;96122.09;5057563;28;20273;-83
2022/10/18 09:51:27;;;;;;;19.95;9.40;;;;;;;17.99;45.38;96133.75;5070354;28;20239;-80
2022/10/18 09:54:23;;;;;;;19.10;8.75;;;;;;;18.11;45.50;96131.94;5073935;28;20178;-86
2022/10/18 09:57:15;;;;;;;23.65;8.27;;;;;;;18.08;45.29;96119.06;5074548;28;20179;-83
2022/10/18 09:59:49;;;;;;;19.98;8.80;;;;;;;18.30;44.28;96125.53;5092489;28;20573;-83
2022/10/18 10:02:22;;;;;;;17.45;9.00;;;;;;;18.17;44.37;96093.72;5061893;28;20661;-85
2022/10/18 10:04:49;;;;;;;16.25;8.93;;;;;;;17.99;41.75;96080.44;5063210;28;20179;-85
2022/10/18 10:07:20;;;;;;;17.92;9.13;;;;;;;17.76;41.85;96107.81;5061251;28;20203;-84
2022/10/18 10:09:54;;;;;;;19.17;8.70;;;;;;;17.33;42.43;96102.56;5054555;28;20163;-85
2022/10/18 10:12:37;;;;;;;12.98;7.85;;;;;;;16.84;43.17;96058.28;5058494;28;20183;-85
2022/10/18 10:15:24;;;;;;;12.75;7.65;;;;;;;16.84;45.00;96077.72;5046418;28;20183;-85
2022/10/18 10:18:00;;;;;;;16.13;9.43;;;;;;;17.06;44.82;96085.25;5065543;28;20612;-85
2022/10/18 10:20:40;;;;;;;17.08;8.65;;;;;;;17.18;45.06;96064.88;5052735;28;20193;-85
2022/10/18 10:23:56;;;;;;;18.30;9.38;;;;;;;17.37;47.99;96071.81;5051233;28;20745;-85
2022/10/18 10:26:26;;;;;;;14.77;7.50;;;;;;;17.33;43.88;96046.66;5010718;28;20731;-84
2022/10/18 10:28:52;;;;;;;15.07;7.20;;;;;;;17.46;44.56;96051.84;5042065;28;20193;-85
2022/10/18 10:31:28;;;;;;;12.82;6.15;;;;;;;17.33;45.22;96014.72;5054217;28;20167;-85
2022/10/18 10:34:02;;;;;;;13.48;6.57;;;;;;;17.73;46.11;96055.81;5052526;28;20692;-85
2022/10/18 10:36:29;;;;;;;10.63;6.60;;;;;;;17.63;44.79;96015.59;5052089;28;20194;-85
2022/10/18 10:39:09;;;;;;;12.15;6.07;;;;;;;17.92;44.75;96042.44;5052019;28;20190;-85
2022/10/18 10:41:37;;;;;;;11.05;6.03;;;;;;;17.66;43.85;95987.69;5052483;28;20205;-85
2022/10/18 10:44:11;;;;;;;17.60;6.18;;;;;;;17.55;43.73;95967.94;5051096;28;20269;-84
2022/10/18 10:46:36;;;;;;;12.75;6.20;;;;;;;17.65;44.16;95972.72;5063638;28;20209;-85
2022/10/18 10:49:03;;;;;;;14.60;5.57;;;;;;;17.65;43.93;95981.53;5079895;28;20219;-85
2022/10/18 10:51:36;;;;;;;12.88;4.43;;;;;;;17.81;42.88;96005.94;5061748;28;20174;-85
2022/10/18 10:54:21;;;;;;;7.72;4.90;;;;;;;17.82;42.14;96004.84;5070723;28;20167;-85
2022/10/18 10:56:56;;;;;;;12.43;5.85;;;;;;;17.81;42.38;96003.25;5062647;28;20549;-84
2022/10/18 10:59:25;;;;;;;17.20;5.68;;;;;;;17.25;42.38;95896.06;5055071;28;20179;-85
2022/10/18 11:02:10;;;;;;;13.60;5.60;;;;;;;17.65;42.49;95965.56;5087438;28;20174;-84
2022/10/18 11:04:37;;;;;;;11.55;5.53;;;;;;;17.58;43.48;95945.34;5052863;28;20237;-85
2022/10/18 11:07:08;;;;;;;11.18;5.50;;;;;;;17.91;44.44;95990.19;5056050;28;20195;-84
2022/10/18 11:09:49;;;;;;;12.75;5.20;;;;;;;18.04;44.46;95990.81;5067903;28;20186;-84
2022/10/18 11:12:23;;;;;;;9.18;5.50;;;;;;;18.22;42.85;95986.41;5071551;28;20231;-84
2022/10/18 11:14:58;;;;;;;9.55;4.47;;;;;;;18.27;42.39;95965.19;5067490;28;20554;-85
2022/10/18 11:17:33;;;;;;;9.27;3.97;;;;;;;18.54;43.00;95976.22;5071513;28;20170;-85
2022/10/18 11:20:12;;;;;;;8.48;4.45;;;;;;;18.67;40.10;95966.16;5071242;28;20221;-84
2022/10/18 11:22:51;;;;;;;9.20;3.80;;;;;;;18.41;38.49;95932.75;5071419;28;20566;-84
2022/10/18 11:25:17;;;;;;;8.63;3.85;;;;;;;18.41;37.85;95918.63;5065438;28;20195;-86
2022/10/18 11:28:04;;;;;;;7.72;4.13;;;;;;;18.47;39.64;95929.16;5066557;28;20665;-84
2022/10/18 11:31:04;;;;;;;12.70;3.47;;;;;;;18.55;36.66;95921.84;5048023;28;20167;-83
2022/10/18 11:33:44;;;;;;;10.27;3.33;;;;;;;18.70;38.18;95933.66;5039045;28;20195;-87
2022/10/18 11:36:19;;;;;;;12.18;3.03;;;;;;;18.74;37.94;95928.69;5065315;28;20206;-85
2022/10/18 11:38:53;;;;;;;5.60;2.80;;;;;;;18.83;38.49;95925.41;5065893;28;20189;-84
2022/10/18 11:41:21;;;;;;;8.00;3.10;;;;;;;18.99;39.47;95923.84;5051630;28;20554;-84